PWSweather.com
Personal Weather Stations
Station Observations
AF1HS
North Haven, CT 06473

North Haven, CT 06473

Lat: 41.3733, Lon: -72.8413

Elevation: 85.3

Station Type: Oregon Scientific WMR968

http://www.af1hs.com/wx/index.php

High Low Average
Temperature 76.6°F24.8°C 51.8°F11.0°C 62.6°F17.0°C
Dew Point 49.1°F9.5°C 39.5°F4.2°C 43.8°F6.6°C
Winds Calm Calm Calm Calm Calm NECalm NE
Wind Gusts -- -- --
Humidity 65% 37% 51%
Pressure 30.28 in1025.4 mb 30.16 in1021.3 mb -
Precipitation 0.00 in0.0 mm - -
Hour Temp Dew Point Humidity Winds Wind Gusts Pressure Precip Precip Rate Daily Precip Total
12:00 AM 54.3°F12.4°C 40.7°F4.8°C 60% Calm Calm -- 30.22 in1023.4 mb - 0.00 in0.0 mm 0.00 in0.0 mm
12:10 AM 54.0°F12.2°C 40.4°F4.7°C 60% Calm Calm -- 30.22 in1023.4 mb - 0.00 in0.0 mm 0.00 in0.0 mm
12:20 AM 53.8°F12.1°C 40.2°F4.6°C 60% Calm Calm -- 30.22 in1023.4 mb - 0.00 in0.0 mm 0.00 in0.0 mm
12:30 AM 53.6°F12.0°C 40.5°F4.7°C 61% Calm Calm -- 30.22 in1023.4 mb - 0.00 in0.0 mm 0.00 in0.0 mm
12:40 AM 53.5°F11.9°C 40.4°F4.7°C 61% Calm Calm -- 30.22 in1023.4 mb - 0.00 in0.0 mm 0.00 in0.0 mm
12:50 AM 53.3°F11.8°C 40.2°F4.6°C 61% Calm Calm -- 30.22 in1023.4 mb - 0.00 in0.0 mm 0.00 in0.0 mm
01:00 AM 53.1°F11.7°C 40.0°F4.4°C 61% Calm Calm -- 30.22 in1023.4 mb - 0.00 in0.0 mm 0.00 in0.0 mm
01:10 AM 52.7°F11.5°C 40.0°F4.4°C 62% Calm Calm -- 30.22 in1023.4 mb - 0.00 in0.0 mm 0.00 in0.0 mm
01:20 AM 52.5°F11.4°C 39.9°F4.4°C 62% Calm Calm -- 30.22 in1023.4 mb - 0.00 in0.0 mm 0.00 in0.0 mm
01:30 AM 52.7°F11.5°C 40.0°F4.4°C 62% Calm Calm -- 30.22 in1023.4 mb - 0.00 in0.0 mm 0.00 in0.0 mm
01:40 AM 52.7°F11.5°C 40.0°F4.4°C 62% Calm Calm -- 30.22 in1023.4 mb - 0.00 in0.0 mm 0.00 in0.0 mm
01:50 AM 52.5°F11.4°C 39.9°F4.4°C 62% Calm Calm -- 30.22 in1023.4 mb - 0.00 in0.0 mm 0.00 in0.0 mm
02:00 AM 52.7°F11.5°C 40.0°F4.4°C 62% Calm Calm -- 30.22 in1023.4 mb - 0.00 in0.0 mm 0.00 in0.0 mm
02:10 AM 52.5°F11.4°C 39.9°F4.4°C 62% Calm Calm -- 30.25 in1024.4 mb - 0.00 in0.0 mm 0.00 in0.0 mm
02:20 AM 52.3°F11.3°C 39.7°F4.3°C 62% Calm Calm -- 30.22 in1023.4 mb - 0.00 in0.0 mm 0.00 in0.0 mm
02:30 AM 52.3°F11.3°C 39.7°F4.3°C 62% Calm Calm -- 30.22 in1023.4 mb - 0.00 in0.0 mm 0.00 in0.0 mm
02:40 AM 52.2°F11.2°C 39.5°F4.2°C 62% Calm Calm -- 30.22 in1023.4 mb - 0.00 in0.0 mm 0.00 in0.0 mm
02:50 AM 52.3°F11.3°C 39.7°F4.3°C 62% Calm Calm -- 30.25 in1024.4 mb - 0.00 in0.0 mm 0.00 in0.0 mm
03:00 AM 52.2°F11.2°C 39.5°F4.2°C 62% Calm Calm -- 30.25 in1024.4 mb - 0.00 in0.0 mm 0.00 in0.0 mm
03:10 AM 52.0°F11.1°C 39.8°F4.3°C 63% Calm Calm -- 30.25 in1024.4 mb - 0.00 in0.0 mm 0.00 in0.0 mm
03:20 AM 51.8°F11.0°C 39.6°F4.2°C 63% Calm Calm -- 30.25 in1024.4 mb - 0.00 in0.0 mm 0.00 in0.0 mm
03:30 AM 52.2°F11.2°C 39.9°F4.4°C 63% Calm Calm -- 30.25 in1024.4 mb - 0.00 in0.0 mm 0.00 in0.0 mm
03:40 AM 52.3°F11.3°C 40.1°F4.5°C 63% Calm Calm -- 30.25 in1024.4 mb - 0.00 in0.0 mm 0.00 in0.0 mm
03:50 AM 52.2°F11.2°C 39.9°F4.4°C 63% Calm Calm -- 30.25 in1024.4 mb - 0.00 in0.0 mm 0.00 in0.0 mm
04:00 AM 52.3°F11.3°C 40.5°F4.7°C 64% Calm Calm -- 30.25 in1024.4 mb - 0.00 in0.0 mm 0.00 in0.0 mm
04:10 AM 52.5°F11.4°C 40.7°F4.8°C 64% Calm Calm -- 30.25 in1024.4 mb - 0.00 in0.0 mm 0.00 in0.0 mm
04:20 AM 52.7°F11.5°C 40.9°F4.9°C 64% Calm Calm -- 30.25 in1024.4 mb - 0.00 in0.0 mm 0.00 in0.0 mm
04:30 AM 52.5°F11.4°C 40.7°F4.8°C 64% Calm Calm -- 30.25 in1024.4 mb - 0.00 in0.0 mm 0.00 in0.0 mm
04:40 AM 52.4°F11.3°C 40.6°F4.8°C 64% Calm Calm -- 30.25 in1024.4 mb - 0.00 in0.0 mm 0.00 in0.0 mm
04:50 AM 52.5°F11.4°C 40.7°F4.8°C 64% Calm Calm -- 30.25 in1024.4 mb - 0.00 in0.0 mm 0.00 in0.0 mm
05:00 AM 52.5°F11.4°C 40.7°F4.8°C 64% Calm Calm -- 30.25 in1024.4 mb - 0.00 in0.0 mm 0.00 in0.0 mm
05:10 AM 52.5°F11.4°C 40.7°F4.8°C 64% Calm Calm -- 30.25 in1024.4 mb - 0.00 in0.0 mm 0.00 in0.0 mm
05:20 AM 52.3°F11.3°C 40.5°F4.7°C 64% Calm Calm -- 30.25 in1024.4 mb - 0.00 in0.0 mm 0.00 in0.0 mm
05:30 AM 52.4°F11.3°C 40.6°F4.8°C 64% Calm Calm -- 30.25 in1024.4 mb - 0.00 in0.0 mm 0.00 in0.0 mm
05:40 AM 52.5°F11.4°C 40.7°F4.8°C 64% Calm Calm -- 30.28 in1025.4 mb - 0.00 in0.0 mm 0.00 in0.0 mm
05:50 AM 52.7°F11.5°C 40.9°F4.9°C 64% Calm Calm -- 30.28 in1025.4 mb - 0.00 in0.0 mm 0.00 in0.0 mm
06:00 AM 53.1°F11.7°C 41.6°F5.3°C 65% Calm Calm -- 30.28 in1025.4 mb - 0.00 in0.0 mm 0.00 in0.0 mm
06:10 AM 53.4°F11.9°C 41.9°F5.5°C 65% Calm Calm -- 30.28 in1025.4 mb - 0.00 in0.0 mm 0.00 in0.0 mm
06:20 AM 54.2°F12.3°C 42.7°F5.9°C 65% Calm Calm -- 30.28 in1025.4 mb - 0.00 in0.0 mm 0.00 in0.0 mm
06:30 AM 55.1°F12.8°C 43.6°F6.4°C 65% Calm Calm -- 30.28 in1025.4 mb - 0.00 in0.0 mm 0.00 in0.0 mm
06:40 AM 56.4°F13.6°C 44.8°F7.1°C 65% Calm Calm -- 30.28 in1025.4 mb - 0.00 in0.0 mm 0.00 in0.0 mm
06:50 AM 57.3°F14.1°C 42.6°F5.9°C 58% Calm Calm -- 30.28 in1025.4 mb - 0.00 in0.0 mm 0.00 in0.0 mm
07:00 AM 57.8°F14.3°C 41.8°F5.4°C 55% Calm Calm -- 30.28 in1025.4 mb - 0.00 in0.0 mm 0.00 in0.0 mm
07:10 AM 58.7°F14.8°C 42.6°F5.9°C 55% Calm Calm -- 30.28 in1025.4 mb - 0.00 in0.0 mm 0.00 in0.0 mm
07:20 AM 60.4°F15.8°C 43.6°F6.4°C 54% Calm Calm -- 30.28 in1025.4 mb - 0.00 in0.0 mm 0.00 in0.0 mm
07:30 AM 61.8°F16.6°C 43.5°F6.4°C 51% Calm Calm -- 30.28 in1025.4 mb - 0.00 in0.0 mm 0.00 in0.0 mm
07:40 AM 63.2°F17.3°C 43.7°F6.5°C 49% Calm Calm -- 30.28 in1025.4 mb - 0.00 in0.0 mm 0.00 in0.0 mm
07:50 AM 64.7°F18.2°C 42.8°F6.0°C 45% Calm Calm -- 30.28 in1025.4 mb - 0.00 in0.0 mm 0.00 in0.0 mm
08:00 AM 65.1°F18.4°C 42.1°F5.6°C 43% Calm Calm -- 30.28 in1025.4 mb - 0.00 in0.0 mm 0.00 in0.0 mm
08:10 AM 65.9°F18.8°C 42.8°F6.0°C 43% Calm Calm -- 30.28 in1025.4 mb - 0.00 in0.0 mm 0.00 in0.0 mm
08:20 AM 66.9°F19.4°C 43.1°F6.2°C 42% Calm Calm -- 30.28 in1025.4 mb - 0.00 in0.0 mm 0.00 in0.0 mm
08:30 AM 68.1°F20.1°C 43.5°F6.4°C 41% Calm Calm -- 30.28 in1025.4 mb - 0.00 in0.0 mm 0.00 in0.0 mm
08:40 AM 66.4°F19.1°C 42.6°F5.9°C 42% Calm Calm -- 30.28 in1025.4 mb - 0.00 in0.0 mm 0.00 in0.0 mm
08:50 AM 67.1°F19.5°C 43.8°F6.6°C 43% Calm Calm -- 30.28 in1025.4 mb - 0.00 in0.0 mm 0.00 in0.0 mm
09:00 AM 66.9°F19.4°C 43.7°F6.5°C 43% Calm Calm -- 30.28 in1025.4 mb - 0.00 in0.0 mm 0.00 in0.0 mm
09:10 AM 67.9°F19.9°C 44.5°F6.9°C 43% Calm Calm -- 30.28 in1025.4 mb - 0.00 in0.0 mm 0.00 in0.0 mm
09:20 AM 70.1°F21.2°C 45.9°F7.7°C 42% Calm Calm -- 30.28 in1025.4 mb - 0.00 in0.0 mm 0.00 in0.0 mm
09:30 AM 72.6°F22.6°C 46.9°F8.3°C 40% Calm Calm -- 30.28 in1025.4 mb - 0.00 in0.0 mm 0.00 in0.0 mm
09:40 AM 72.4°F22.4°C 46.7°F8.2°C 40% Calm Calm -- 30.28 in1025.4 mb - 0.00 in0.0 mm 0.00 in0.0 mm
09:50 AM 72.7°F22.6°C 46.3°F7.9°C 39% Calm Calm -- 30.28 in1025.4 mb - 0.00 in0.0 mm 0.00 in0.0 mm
10:00 AM 74.1°F23.4°C 46.9°F8.3°C 38% Calm Calm -- 30.28 in1025.4 mb - 0.00 in0.0 mm 0.00 in0.0 mm
10:10 AM 74.1°F23.4°C 46.9°F8.3°C 38% Calm Calm -- 30.28 in1025.4 mb - 0.00 in0.0 mm 0.00 in0.0 mm
10:20 AM 75.5°F24.2°C 48.1°F8.9°C 38% Calm Calm -- 30.28 in1025.4 mb - 0.00 in0.0 mm 0.00 in0.0 mm
10:30 AM 76.6°F24.8°C 49.1°F9.5°C 38% Calm Calm -- 30.28 in1025.4 mb - 0.00 in0.0 mm 0.00 in0.0 mm
10:40 AM 75.9°F24.4°C 48.5°F9.2°C 38% Calm Calm -- 30.28 in1025.4 mb - 0.00 in0.0 mm 0.00 in0.0 mm
10:50 AM 75.5°F24.2°C 48.1°F8.9°C 38% Calm Calm -- 30.28 in1025.4 mb - 0.00 in0.0 mm 0.00 in0.0 mm
11:00 AM 75.8°F24.3°C 47.7°F8.7°C 37% Calm Calm -- 30.28 in1025.4 mb - 0.00 in0.0 mm 0.00 in0.0 mm
11:10 AM 75.5°F24.2°C 48.1°F8.9°C 38% Calm Calm -- 30.28 in1025.4 mb - 0.00 in0.0 mm 0.00 in0.0 mm
11:20 AM 75.4°F24.1°C 48.0°F8.9°C 38% Calm Calm -- 30.25 in1024.4 mb - 0.00 in0.0 mm 0.00 in0.0 mm
11:30 AM 75.2°F24.0°C 47.9°F8.8°C 38% Calm Calm -- 30.25 in1024.4 mb - 0.00 in0.0 mm 0.00 in0.0 mm
11:40 AM 74.6°F23.7°C 47.3°F8.5°C 38% Calm Calm -- 30.25 in1024.4 mb - 0.00 in0.0 mm 0.00 in0.0 mm
11:50 AM 74.8°F23.8°C 47.5°F8.6°C 38% Calm Calm -- 30.25 in1024.4 mb - 0.00 in0.0 mm 0.00 in0.0 mm
12:00 PM 73.9°F23.3°C 46.7°F8.2°C 38% Calm Calm -- 30.25 in1024.4 mb - 0.00 in0.0 mm 0.00 in0.0 mm
12:10 PM 74.8°F23.8°C 47.5°F8.6°C 38% Calm Calm -- 30.25 in1024.4 mb - 0.00 in0.0 mm 0.00 in0.0 mm
12:20 PM 73.9°F23.3°C 46.7°F8.2°C 38% Calm Calm -- 30.28 in1025.4 mb - 0.00 in0.0 mm 0.00 in0.0 mm
12:30 PM 74.3°F23.5°C 47.0°F8.3°C 38% Calm Calm -- 30.28 in1025.4 mb - 0.00 in0.0 mm 0.00 in0.0 mm
12:40 PM 73.7°F23.2°C 46.5°F8.1°C 38% Calm Calm -- 30.25 in1024.4 mb - 0.00 in0.0 mm 0.00 in0.0 mm
12:50 PM 74.1°F23.4°C 46.9°F8.3°C 38% Calm Calm -- 30.25 in1024.4 mb - 0.00 in0.0 mm 0.00 in0.0 mm
01:00 PM 72.2°F22.3°C 45.1°F7.3°C 38% Calm Calm -- 30.25 in1024.4 mb - 0.00 in0.0 mm 0.00 in0.0 mm
01:10 PM 71.4°F21.9°C 45.2°F7.3°C 39% Calm Calm -- 30.25 in1024.4 mb - 0.00 in0.0 mm 0.00 in0.0 mm
01:20 PM 72.0°F22.2°C 45.6°F7.6°C 39% Calm Calm -- 30.25 in1024.4 mb - 0.00 in0.0 mm 0.00 in0.0 mm
01:30 PM 71.8°F22.1°C 45.5°F7.5°C 39% Calm Calm -- 30.25 in1024.4 mb - 0.00 in0.0 mm 0.00 in0.0 mm
01:40 PM 71.8°F22.1°C 46.2°F7.9°C 40% Calm Calm -- 30.25 in1024.4 mb - 0.00 in0.0 mm 0.00 in0.0 mm
01:50 PM 72.6°F22.6°C 46.9°F8.3°C 40% Calm Calm -- 30.22 in1023.4 mb - 0.00 in0.0 mm 0.00 in0.0 mm
02:00 PM 71.2°F21.8°C 45.0°F7.2°C 39% Calm Calm -- 30.22 in1023.4 mb - 0.00 in0.0 mm 0.00 in0.0 mm
02:10 PM 70.6°F21.4°C 45.7°F7.6°C 41% Calm Calm -- 30.22 in1023.4 mb - 0.00 in0.0 mm 0.00 in0.0 mm
02:20 PM 70.5°F21.4°C 45.7°F7.6°C 41% Calm Calm -- 30.22 in1023.4 mb - 0.00 in0.0 mm 0.00 in0.0 mm
02:30 PM 71.3°F21.8°C 45.8°F7.7°C 40% Calm Calm -- 30.22 in1023.4 mb - 0.00 in0.0 mm 0.00 in0.0 mm
02:40 PM 72.8°F22.7°C 46.4°F8.0°C 39% Calm Calm -- 30.22 in1023.4 mb - 0.00 in0.0 mm 0.00 in0.0 mm
02:50 PM 71.2°F21.8°C 45.7°F7.6°C 40% Calm Calm -- 30.22 in1023.4 mb - 0.00 in0.0 mm 0.00 in0.0 mm
03:00 PM 70.6°F21.4°C 45.1°F7.3°C 40% Calm Calm -- 30.22 in1023.4 mb - 0.00 in0.0 mm 0.00 in0.0 mm
03:10 PM 71.2°F21.8°C 45.0°F7.2°C 39% Calm Calm -- 30.22 in1023.4 mb - 0.00 in0.0 mm 0.00 in0.0 mm
03:20 PM 70.6°F21.4°C 45.1°F7.3°C 40% Calm Calm -- 30.22 in1023.4 mb - 0.00 in0.0 mm 0.00 in0.0 mm
03:40 PM 69.8°F21.0°C 45.6°F7.6°C 42% Calm Calm -- 30.22 in1023.4 mb - 0.00 in0.0 mm 0.00 in0.0 mm
03:50 PM 70.0°F21.1°C 45.2°F7.3°C 41% Calm Calm -- 30.20 in1022.7 mb - 0.00 in0.0 mm 0.00 in0.0 mm
04:00 PM 69.2°F20.7°C 44.5°F6.9°C 41% Calm Calm -- 30.19 in1022.4 mb - 0.00 in0.0 mm 0.00 in0.0 mm
04:10 PM 68.9°F20.5°C 46.1°F7.8°C 44% Calm Calm -- 30.22 in1023.4 mb - 0.00 in0.0 mm 0.00 in0.0 mm
04:20 PM 68.5°F20.3°C 43.9°F6.6°C 41% Calm Calm -- 30.22 in1023.4 mb - 0.00 in0.0 mm 0.00 in0.0 mm
04:30 PM 68.2°F20.1°C 44.8°F7.1°C 43% Calm Calm -- 30.22 in1023.4 mb - 0.00 in0.0 mm 0.00 in0.0 mm
04:40 PM 68.8°F20.4°C 45.4°F7.4°C 43% Calm Calm -- 30.22 in1023.4 mb - 0.00 in0.0 mm 0.00 in0.0 mm
04:50 PM 68.9°F20.5°C 46.1°F7.8°C 44% Calm Calm -- 30.22 in1023.4 mb - 0.00 in0.0 mm 0.00 in0.0 mm
05:00 PM 68.2°F20.1°C 47.8°F8.8°C 48% Calm Calm -- 30.22 in1023.4 mb - 0.00 in0.0 mm 0.00 in0.0 mm
05:10 PM 67.5°F19.7°C 48.2°F9.0°C 50% Calm Calm -- 30.22 in1023.4 mb - 0.00 in0.0 mm 0.00 in0.0 mm
05:20 PM 67.1°F19.5°C 47.8°F8.8°C 50% Calm Calm -- 30.22 in1023.4 mb - 0.00 in0.0 mm 0.00 in0.0 mm
05:30 PM 66.7°F19.3°C 47.5°F8.6°C 50% Calm Calm -- 30.22 in1023.4 mb - 0.00 in0.0 mm 0.00 in0.0 mm
05:40 PM 66.4°F19.1°C 47.2°F8.4°C 50% Calm Calm -- 30.22 in1023.4 mb - 0.00 in0.0 mm 0.00 in0.0 mm
05:50 PM 65.9°F18.8°C 47.3°F8.5°C 51% Calm Calm -- 30.22 in1023.4 mb - 0.00 in0.0 mm 0.00 in0.0 mm
06:00 PM 65.7°F18.7°C 47.0°F8.3°C 51% Calm Calm -- 30.22 in1023.4 mb - 0.00 in0.0 mm 0.00 in0.0 mm
06:10 PM 65.1°F18.4°C 46.5°F8.1°C 51% Calm Calm -- 30.22 in1023.4 mb - 0.00 in0.0 mm 0.00 in0.0 mm
06:20 PM 64.8°F18.2°C 46.7°F8.2°C 52% Calm Calm -- 30.22 in1023.4 mb - 0.00 in0.0 mm 0.00 in0.0 mm
06:30 PM 64.4°F18.0°C 46.4°F8.0°C 52% Calm Calm -- 30.22 in1023.4 mb - 0.00 in0.0 mm 0.00 in0.0 mm
06:40 PM 64.0°F17.8°C 46.1°F7.8°C 52% Calm Calm -- 30.19 in1022.4 mb - 0.00 in0.0 mm 0.00 in0.0 mm
06:50 PM 63.7°F17.6°C 46.2°F7.9°C 53% Calm Calm -- 30.19 in1022.4 mb - 0.00 in0.0 mm 0.00 in0.0 mm
07:00 PM 63.5°F17.5°C 46.1°F7.8°C 53% Calm Calm -- 30.19 in1022.4 mb - 0.00 in0.0 mm 0.00 in0.0 mm
07:10 PM 63.1°F17.3°C 45.7°F7.6°C 53% Calm Calm -- 30.19 in1022.4 mb - 0.00 in0.0 mm 0.00 in0.0 mm
07:20 PM 63.1°F17.3°C 45.6°F7.6°C 53% Calm Calm -- 30.19 in1022.4 mb - 0.00 in0.0 mm 0.00 in0.0 mm
07:40 PM 62.2°F16.8°C 45.4°F7.4°C 54% Calm Calm -- 30.19 in1022.4 mb - 0.00 in0.0 mm 0.00 in0.0 mm
07:50 PM 62.1°F16.7°C 45.2°F7.3°C 54% Calm Calm -- 30.19 in1022.4 mb - 0.00 in0.0 mm 0.00 in0.0 mm
08:00 PM 61.9°F16.6°C 45.0°F7.2°C 54% Calm Calm -- 30.19 in1022.4 mb - 0.00 in0.0 mm 0.00 in0.0 mm
08:10 PM 61.9°F16.6°C 45.0°F7.2°C 54% Calm Calm -- 30.19 in1022.4 mb - 0.00 in0.0 mm 0.00 in0.0 mm
08:20 PM 61.9°F16.6°C 45.0°F7.2°C 54% Calm Calm -- 30.19 in1022.4 mb - 0.00 in0.0 mm 0.00 in0.0 mm
08:30 PM 61.6°F16.4°C 44.3°F6.8°C 53% Calm Calm -- 30.19 in1022.4 mb - 0.00 in0.0 mm 0.00 in0.0 mm
08:40 PM 60.8°F16.0°C 44.0°F6.7°C 54% Calm Calm -- 30.19 in1022.4 mb - 0.00 in0.0 mm 0.00 in0.0 mm
08:50 PM 60.3°F15.7°C 43.5°F6.4°C 54% Calm Calm -- 30.19 in1022.4 mb - 0.00 in0.0 mm 0.00 in0.0 mm
09:00 PM 59.5°F15.3°C 43.3°F6.3°C 55% Calm Calm -- 30.19 in1022.4 mb - 0.00 in0.0 mm 0.00 in0.0 mm
09:10 PM 59.0°F15.0°C 43.3°F6.3°C 56% Calm Calm -- 30.19 in1022.4 mb - 0.00 in0.0 mm 0.00 in0.0 mm
09:20 PM 58.6°F14.8°C 43.0°F6.1°C 56% Calm Calm -- 30.19 in1022.4 mb - 0.00 in0.0 mm 0.00 in0.0 mm
09:30 PM 58.5°F14.7°C 42.8°F6.0°C 56% Calm Calm -- 30.19 in1022.4 mb - 0.00 in0.0 mm 0.00 in0.0 mm
09:40 PM 58.1°F14.5°C 42.5°F5.8°C 56% Calm Calm -- 30.19 in1022.4 mb - 0.00 in0.0 mm 0.00 in0.0 mm
09:50 PM 57.7°F14.3°C 42.6°F5.9°C 57% Calm Calm -- 30.19 in1022.4 mb - 0.00 in0.0 mm 0.00 in0.0 mm
10:00 PM 57.4°F14.1°C 42.3°F5.7°C 57% Calm Calm -- 30.19 in1022.4 mb - 0.00 in0.0 mm 0.00 in0.0 mm
10:10 PM 57.2°F14.0°C 42.5°F5.8°C 58% Calm Calm -- 30.16 in1021.3 mb - 0.00 in0.0 mm 0.00 in0.0 mm
10:20 PM 57.0°F13.9°C 42.4°F5.8°C 58% Calm Calm -- 30.16 in1021.3 mb - 0.00 in0.0 mm 0.00 in0.0 mm
10:30 PM 57.0°F13.9°C 42.4°F5.8°C 58% Calm Calm -- 30.16 in1021.3 mb - 0.00 in0.0 mm 0.00 in0.0 mm
10:40 PM 56.8°F13.8°C 42.2°F5.7°C 58% Calm Calm -- 30.16 in1021.3 mb - 0.00 in0.0 mm 0.00 in0.0 mm
10:50 PM 56.7°F13.7°C 42.0°F5.6°C 58% Calm Calm -- 30.16 in1021.3 mb - 0.00 in0.0 mm 0.00 in0.0 mm
11:00 PM 56.2°F13.4°C 42.1°F5.6°C 59% Calm Calm -- 30.16 in1021.3 mb - 0.00 in0.0 mm 0.00 in0.0 mm
11:10 PM 55.9°F13.3°C 41.8°F5.4°C 59% Calm Calm -- 30.16 in1021.3 mb - 0.00 in0.0 mm 0.00 in0.0 mm
11:20 PM 55.9°F13.3°C 41.8°F5.4°C 59% Calm Calm -- 30.16 in1021.3 mb - 0.00 in0.0 mm 0.00 in0.0 mm
11:30 PM 55.8°F13.2°C 41.6°F5.3°C 59% Calm Calm -- 30.16 in1021.3 mb - 0.00 in0.0 mm 0.00 in0.0 mm
11:40 PM 55.6°F13.1°C 41.9°F5.5°C 60% Calm Calm -- 30.16 in1021.3 mb - 0.00 in0.0 mm 0.00 in0.0 mm
11:50 PM 55.4°F13.0°C 41.7°F5.4°C 60% Calm Calm -- 30.16 in1021.3 mb - 0.00 in0.0 mm 0.00 in0.0 mm